ENOV/HOV METAR and TAF weather

Enter ICAO airport designator
Station Type Date Time Source
ENOV METAR 2018/12/10 19:20 UTC NOAA

ENOV 101920Z VRB06KT 9999 VCSH FEW016 BKN037 03/M00 Q1018 RMK WIND 2175FT 34023KT


Station Type Date Time Source
ENOV Decoded METAR 2018/12/10 19:20 UTC NOAA

Orsta-Volda / Hovden, Norway (ENOV) 62-11N 006-04E 74M
Dec 10, 2018 - 02:20 PM EST / 2018.12.10 1920 UTC
Wind: Variable at 7 MPH (6 KT):0
Visibility: greater than 7 mile(s):0
Sky conditions: mostly cloudy
Weather: showers in the vicinity
Temperature: 37 F (3 C)
Dew Point: 32 F (0 C)
Relative Humidity: 80%
Pressure (altimeter): 30.06 in. Hg (1018 hPa)
ob: ENOV 101920Z VRB06KT 9999 VCSH FEW016 BKN037 03/M00 Q1018 RMK WIND 2175FT 34023KT
cycle: 19

Station Type Date Time Source
ENOV TAF UTC NOAA

Error!


Example: see airport list